sensor_id;sensor_type;location;lat;lon;timestamp;P1;durP1;ratioP1;P2;durP2;ratioP2
6832;SDS011;3454;42.654;23.378;2023-03-01T00:01:06;3.13;;;2.60;;
6832;SDS011;3454;42.654;23.378;2023-03-01T00:03:34;3.80;;;2.63;;
6832;SDS011;3454;42.654;23.378;2023-03-01T00:06:00;4.23;;;3.07;;
6832;SDS011;3454;42.654;23.378;2023-03-01T00:08:26;5.07;;;2.77;;
6832;SDS011;3454;42.654;23.378;2023-03-01T00:13:43;3.07;;;2.27;;
6832;SDS011;3454;42.654;23.378;2023-03-01T00:16:11;2.80;;;2.40;;
6832;SDS011;3454;42.654;23.378;2023-03-01T00:18:41;2.90;;;2.30;;
6832;SDS011;3454;42.654;23.378;2023-03-01T00:21:06;2.90;;;2.13;;
6832;SDS011;3454;42.654;23.378;2023-03-01T00:23:33;3.17;;;2.07;;
6832;SDS011;3454;42.654;23.378;2023-03-01T00:26:00;3.63;;;2.53;;
6832;SDS011;3454;42.654;23.378;2023-03-01T00:28:25;3.73;;;2.00;;
6832;SDS011;3454;42.654;23.378;2023-03-01T00:30:51;2.67;;;2.00;;
6832;SDS011;3454;42.654;23.378;2023-03-01T00:33:16;3.37;;;2.23;;
6832;SDS011;3454;42.654;23.378;2023-03-01T00:35:42;3.27;;;1.97;;
6832;SDS011;3454;42.654;23.378;2023-03-01T00:38:08;2.77;;;1.93;;
6832;SDS011;3454;42.654;23.378;2023-03-01T00:40:34;3.13;;;2.00;;
6832;SDS011;3454;42.654;23.378;2023-03-01T00:43:00;2.27;;;1.80;;
6832;SDS011;3454;42.654;23.378;2023-03-01T00:45:26;4.90;;;1.87;;
6832;SDS011;3454;42.654;23.378;2023-03-01T00:47:52;1.83;;;1.70;;
6832;SDS011;3454;42.654;23.378;2023-03-01T00:50:18;2.60;;;2.00;;
6832;SDS011;3454;42.654;23.378;2023-03-01T00:52:44;2.40;;;1.70;;
6832;SDS011;3454;42.654;23.378;2023-03-01T00:55:09;1.90;;;1.80;;
6832;SDS011;3454;42.654;23.378;2023-03-01T00:57:36;2.00;;;1.80;;
6832;SDS011;3454;42.654;23.378;2023-03-01T01:00:03;2.57;;;2.00;;
6832;SDS011;3454;42.654;23.378;2023-03-01T01:02:34;4.67;;;1.60;;
6832;SDS011;3454;42.654;23.378;2023-03-01T01:05:00;2.53;;;1.80;;
6832;SDS011;3454;42.654;23.378;2023-03-01T01:07:26;2.83;;;2.13;;
6832;SDS011;3454;42.654;23.378;2023-03-01T01:09:51;1.87;;;1.60;;
6832;SDS011;3454;42.654;23.378;2023-03-01T01:12:16;1.70;;;1.40;;
6832;SDS011;3454;42.654;23.378;2023-03-01T01:14:42;2.57;;;1.80;;
6832;SDS011;3454;42.654;23.378;2023-03-01T01:17:07;2.70;;;1.70;;
6832;SDS011;3454;42.654;23.378;2023-03-01T01:19:32;1.60;;;1.50;;
6832;SDS011;3454;42.654;23.378;2023-03-01T01:21:58;1.70;;;1.60;;
6832;SDS011;3454;42.654;23.378;2023-03-01T01:24:23;2.70;;;1.50;;
6832;SDS011;3454;42.654;23.378;2023-03-01T01:26:49;1.83;;;1.40;;
6832;SDS011;3454;42.654;23.378;2023-03-01T01:29:15;1.47;;;1.37;;
6832;SDS011;3454;42.654;23.378;2023-03-01T01:31:42;1.47;;;1.37;;
6832;SDS011;3454;42.654;23.378;2023-03-01T01:34:11;1.53;;;1.43;;
6832;SDS011;3454;42.654;23.378;2023-03-01T01:36:39;1.50;;;1.40;;
6832;SDS011;3454;42.654;23.378;2023-03-01T01:39:05;3.53;;;1.30;;
6832;SDS011;3454;42.654;23.378;2023-03-01T01:41:31;1.20;;;1.10;;
6832;SDS011;3454;42.654;23.378;2023-03-01T01:44:14;1.53;;;1.30;;
6832;SDS011;3454;42.654;23.378;2023-03-01T01:46:41;1.50;;;1.10;;
6832;SDS011;3454;42.654;23.378;2023-03-01T01:49:22;1.30;;;1.20;;
6832;SDS011;3454;42.654;23.378;2023-03-01T01:57:08;1.27;;;1.17;;
6832;SDS011;3454;42.654;23.378;2023-03-01T01:59:56;1.70;;;1.60;;
6832;SDS011;3454;42.654;23.378;2023-03-01T02:02:25;1.33;;;1.23;;
6832;SDS011;3454;42.654;23.378;2023-03-01T02:04:53;1.10;;;1.10;;
6832;SDS011;3454;42.654;23.378;2023-03-01T02:07:28;1.47;;;1.37;;
6832;SDS011;3454;42.654;23.378;2023-03-01T02:09:55;1.20;;;1.10;;
6832;SDS011;3454;42.654;23.378;2023-03-01T02:12:21;1.00;;;1.00;;
6832;SDS011;3454;42.654;23.378;2023-03-01T02:14:49;1.23;;;1.13;;
6832;SDS011;3454;42.654;23.378;2023-03-01T02:17:15;1.00;;;1.00;;
6832;SDS011;3454;42.654;23.378;2023-03-01T02:22:32;1.60;;;1.50;;
6832;SDS011;3454;42.654;23.378;2023-03-01T02:25:07;1.43;;;1.33;;
6832;SDS011;3454;42.654;23.378;2023-03-01T02:28:10;1.60;;;1.50;;
6832;SDS011;3454;42.654;23.378;2023-03-01T02:30:33;1.63;;;1.17;;
6832;SDS011;3454;42.654;23.378;2023-03-01T02:32:58;0.80;;;0.80;;
6832;SDS011;3454;42.654;23.378;2023-03-01T02:35:33;1.40;;;1.30;;
6832;SDS011;3454;42.654;23.378;2023-03-01T02:38:03;2.30;;;1.30;;
6832;SDS011;3454;42.654;23.378;2023-03-01T02:40:33;1.40;;;1.30;;
6832;SDS011;3454;42.654;23.378;2023-03-01T02:43:00;1.67;;;1.53;;
6832;SDS011;3454;42.654;23.378;2023-03-01T02:45:29;4.20;;;1.67;;
6832;SDS011;3454;42.654;23.378;2023-03-01T02:47:55;2.00;;;1.50;;
6832;SDS011;3454;42.654;23.378;2023-03-01T02:55:21;1.97;;;1.43;;
6832;SDS011;3454;42.654;23.378;2023-03-01T02:57:46;1.80;;;1.70;;
6832;SDS011;3454;42.654;23.378;2023-03-01T03:00:26;1.73;;;1.57;;
6832;SDS011;3454;42.654;23.378;2023-03-01T03:02:56;2.13;;;2.00;;
6832;SDS011;3454;42.654;23.378;2023-03-01T03:05:27;2.20;;;2.00;;
6832;SDS011;3454;42.654;23.378;2023-03-01T03:07:54;3.07;;;1.90;;
6832;SDS011;3454;42.654;23.378;2023-03-01T03:10:24;1.93;;;1.70;;
6832;SDS011;3454;42.654;23.378;2023-03-01T03:12:55;2.57;;;1.80;;
6832;SDS011;3454;42.654;23.378;2023-03-01T03:15:23;2.13;;;1.97;;
6832;SDS011;3454;42.654;23.378;2023-03-01T03:17:50;2.57;;;2.17;;
6832;SDS011;3454;42.654;23.378;2023-03-01T03:20:17;2.70;;;2.50;;
6832;SDS011;3454;42.654;23.378;2023-03-01T03:22:48;2.00;;;1.80;;
6832;SDS011;3454;42.654;23.378;2023-03-01T03:25:19;3.33;;;2.07;;
6832;SDS011;3454;42.654;23.378;2023-03-01T03:27:45;1.63;;;1.53;;
6832;SDS011;3454;42.654;23.378;2023-03-01T03:30:14;2.63;;;1.80;;
6832;SDS011;3454;42.654;23.378;2023-03-01T03:32:41;1.63;;;1.53;;
6832;SDS011;3454;42.654;23.378;2023-03-01T03:35:25;1.80;;;1.70;;
6832;SDS011;3454;42.654;23.378;2023-03-01T03:37:58;2.47;;;1.87;;
6832;SDS011;3454;42.654;23.378;2023-03-01T03:40:28;2.43;;;2.13;;
6832;SDS011;3454;42.654;23.378;2023-03-01T03:42:59;1.73;;;1.60;;
6832;SDS011;3454;42.654;23.378;2023-03-01T03:45:25;1.63;;;1.27;;
6832;SDS011;3454;42.654;23.378;2023-03-01T03:47:50;3.13;;;1.50;;
6832;SDS011;3454;42.654;23.378;2023-03-01T03:50:34;1.60;;;1.50;;
6832;SDS011;3454;42.654;23.378;2023-03-01T03:53:01;1.70;;;1.60;;
6832;SDS011;3454;42.654;23.378;2023-03-01T03:55:28;1.80;;;1.63;;
6832;SDS011;3454;42.654;23.378;2023-03-01T03:57:59;1.83;;;1.70;;
6832;SDS011;3454;42.654;23.378;2023-03-01T04:00:44;1.87;;;1.33;;
6832;SDS011;3454;42.654;23.378;2023-03-01T04:03:11;2.60;;;1.40;;
6832;SDS011;3454;42.654;23.378;2023-03-01T04:05:38;1.30;;;1.20;;
6832;SDS011;3454;42.654;23.378;2023-03-01T04:08:05;1.87;;;1.70;;
6832;SDS011;3454;42.654;23.378;2023-03-01T04:10:41;1.60;;;1.50;;
6832;SDS011;3454;42.654;23.378;2023-03-01T04:13:10;2.40;;;1.30;;
6832;SDS011;3454;42.654;23.378;2023-03-01T04:15:37;1.83;;;1.50;;
6832;SDS011;3454;42.654;23.378;2023-03-01T04:18:03;2.27;;;1.43;;
6832;SDS011;3454;42.654;23.378;2023-03-01T04:20:30;2.07;;;1.97;;
6832;SDS011;3454;42.654;23.378;2023-03-01T04:25:41;3.27;;;1.70;;
6832;SDS011;3454;42.654;23.378;2023-03-01T04:30:54;3.40;;;1.97;;
6832;SDS011;3454;42.654;23.378;2023-03-01T04:33:22;4.77;;;1.50;;
6832;SDS011;3454;42.654;23.378;2023-03-01T04:35:49;2.00;;;1.77;;
6832;SDS011;3454;42.654;23.378;2023-03-01T04:38:15;2.03;;;1.60;;
6832;SDS011;3454;42.654;23.378;2023-03-01T04:40:42;1.97;;;1.53;;
6832;SDS011;3454;42.654;23.378;2023-03-01T04:43:08;2.33;;;1.97;;
6832;SDS011;3454;42.654;23.378;2023-03-01T04:45:35;2.57;;;1.60;;
6832;SDS011;3454;42.654;23.378;2023-03-01T04:48:01;2.20;;;1.83;;
6832;SDS011;3454;42.654;23.378;2023-03-01T04:50:26;1.90;;;1.73;;
6832;SDS011;3454;42.654;23.378;2023-03-01T04:52:52;2.77;;;1.97;;
6832;SDS011;3454;42.654;23.378;2023-03-01T04:55:18;1.40;;;1.30;;
6832;SDS011;3454;42.654;23.378;2023-03-01T04:57:44;2.53;;;2.00;;
6832;SDS011;3454;42.654;23.378;2023-03-01T05:00:10;4.90;;;2.43;;
6832;SDS011;3454;42.654;23.378;2023-03-01T05:05:27;3.50;;;1.90;;
6832;SDS011;3454;42.654;23.378;2023-03-01T05:08:02;2.10;;;1.60;;
6832;SDS011;3454;42.654;23.378;2023-03-01T05:10:31;1.43;;;1.33;;
6832;SDS011;3454;42.654;23.378;2023-03-01T05:12:57;2.53;;;1.83;;
6832;SDS011;3454;42.654;23.378;2023-03-01T05:15:27;1.97;;;1.60;;
6832;SDS011;3454;42.654;23.378;2023-03-01T05:17:55;1.80;;;1.40;;
6832;SDS011;3454;42.654;23.378;2023-03-01T05:20:23;1.50;;;1.40;;
6832;SDS011;3454;42.654;23.378;2023-03-01T05:22:50;1.57;;;1.33;;
6832;SDS011;3454;42.654;23.378;2023-03-01T05:25:16;2.77;;;1.50;;
6832;SDS011;3454;42.654;23.378;2023-03-01T05:27:42;3.13;;;1.67;;
6832;SDS011;3454;42.654;23.378;2023-03-01T05:30:08;1.70;;;1.60;;
6832;SDS011;3454;42.654;23.378;2023-03-01T05:32:39;2.93;;;1.73;;
6832;SDS011;3454;42.654;23.378;2023-03-01T05:35:06;1.67;;;1.30;;
6832;SDS011;3454;42.654;23.378;2023-03-01T05:37:31;2.73;;;2.00;;
6832;SDS011;3454;42.654;23.378;2023-03-01T05:39:57;1.97;;;1.60;;
6832;SDS011;3454;42.654;23.378;2023-03-01T05:42:22;2.90;;;1.40;;
6832;SDS011;3454;42.654;23.378;2023-03-01T05:44:48;3.07;;;1.33;;
6832;SDS011;3454;42.654;23.378;2023-03-01T05:47:13;2.43;;;1.50;;
6832;SDS011;3454;42.654;23.378;2023-03-01T05:49:39;1.63;;;1.50;;
6832;SDS011;3454;42.654;23.378;2023-03-01T05:52:04;4.60;;;1.50;;
6832;SDS011;3454;42.654;23.378;2023-03-01T05:54:29;3.17;;;1.87;;
6832;SDS011;3454;42.654;23.378;2023-03-01T05:56:55;2.23;;;1.70;;
6832;SDS011;3454;42.654;23.378;2023-03-01T05:59:21;2.60;;;2.30;;
6832;SDS011;3454;42.654;23.378;2023-03-01T06:01:46;2.37;;;1.90;;
6832;SDS011;3454;42.654;23.378;2023-03-01T06:04:12;2.07;;;1.87;;
6832;SDS011;3454;42.654;23.378;2023-03-01T06:06:37;3.03;;;2.20;;
6832;SDS011;3454;42.654;23.378;2023-03-01T06:09:04;1.90;;;1.60;;
6832;SDS011;3454;42.654;23.378;2023-03-01T06:11:33;2.73;;;1.97;;
6832;SDS011;3454;42.654;23.378;2023-03-01T06:13:59;9.17;;;2.30;;
6832;SDS011;3454;42.654;23.378;2023-03-01T06:16:25;1.83;;;1.57;;
6832;SDS011;3454;42.654;23.378;2023-03-01T06:18:50;1.90;;;1.70;;
6832;SDS011;3454;42.654;23.378;2023-03-01T06:21:16;4.50;;;2.13;;
6832;SDS011;3454;42.654;23.378;2023-03-01T06:23:41;4.03;;;1.83;;
6832;SDS011;3454;42.654;23.378;2023-03-01T06:26:07;4.23;;;1.90;;
6832;SDS011;3454;42.654;23.378;2023-03-01T06:28:33;5.37;;;2.20;;
6832;SDS011;3454;42.654;23.378;2023-03-01T06:30:59;2.17;;;1.97;;
6832;SDS011;3454;42.654;23.378;2023-03-01T06:33:25;3.73;;;2.57;;
6832;SDS011;3454;42.654;23.378;2023-03-01T06:35:50;3.17;;;2.20;;
6832;SDS011;3454;42.654;23.378;2023-03-01T06:38:16;3.20;;;2.53;;
6832;SDS011;3454;42.654;23.378;2023-03-01T06:40:44;4.53;;;2.30;;
6832;SDS011;3454;42.654;23.378;2023-03-01T06:43:10;2.63;;;2.13;;
6832;SDS011;3454;42.654;23.378;2023-03-01T06:45:36;3.57;;;2.17;;
6832;SDS011;3454;42.654;23.378;2023-03-01T06:48:05;4.17;;;2.10;;
6832;SDS011;3454;42.654;23.378;2023-03-01T06:50:31;3.67;;;2.03;;
6832;SDS011;3454;42.654;23.378;2023-03-01T06:52:58;3.10;;;2.20;;
6832;SDS011;3454;42.654;23.378;2023-03-01T06:55:23;4.33;;;2.00;;
6832;SDS011;3454;42.654;23.378;2023-03-01T06:57:53;3.13;;;1.57;;
6832;SDS011;3454;42.654;23.378;2023-03-01T07:00:22;4.40;;;1.93;;
6832;SDS011;3454;42.654;23.378;2023-03-01T07:02:48;1.70;;;1.60;;
6832;SDS011;3454;42.654;23.378;2023-03-01T07:05:13;3.87;;;2.20;;
6832;SDS011;3454;42.654;23.378;2023-03-01T07:07:39;8.40;;;2.10;;
6832;SDS011;3454;42.654;23.378;2023-03-01T07:10:04;2.73;;;1.93;;
6832;SDS011;3454;42.654;23.378;2023-03-01T07:12:31;4.83;;;2.23;;
6832;SDS011;3454;42.654;23.378;2023-03-01T07:14:56;3.07;;;1.43;;
6832;SDS011;3454;42.654;23.378;2023-03-01T07:17:21;4.20;;;1.83;;
6832;SDS011;3454;42.654;23.378;2023-03-01T07:19:47;4.97;;;1.63;;
6832;SDS011;3454;42.654;23.378;2023-03-01T07:22:12;2.40;;;1.50;;
6832;SDS011;3454;42.654;23.378;2023-03-01T07:24:38;2.13;;;1.40;;
6832;SDS011;3454;42.654;23.378;2023-03-01T07:27:03;2.33;;;1.40;;
6832;SDS011;3454;42.654;23.378;2023-03-01T07:29:29;5.50;;;1.67;;
6832;SDS011;3454;42.654;23.378;2023-03-01T07:31:55;2.00;;;1.50;;
6832;SDS011;3454;42.654;23.378;2023-03-01T07:34:20;3.53;;;1.47;;
6832;SDS011;3454;42.654;23.378;2023-03-01T07:36:46;3.43;;;1.97;;
6832;SDS011;3454;42.654;23.378;2023-03-01T07:39:11;5.20;;;2.00;;
6832;SDS011;3454;42.654;23.378;2023-03-01T07:41:37;5.37;;;1.93;;
6832;SDS011;3454;42.654;23.378;2023-03-01T07:44:03;2.73;;;1.80;;
6832;SDS011;3454;42.654;23.378;2023-03-01T07:46:28;5.43;;;1.73;;
6832;SDS011;3454;42.654;23.378;2023-03-01T07:48:54;3.20;;;1.43;;
6832;SDS011;3454;42.654;23.378;2023-03-01T07:51:19;3.17;;;1.83;;
6832;SDS011;3454;42.654;23.378;2023-03-01T07:53:48;3.57;;;1.73;;
6832;SDS011;3454;42.654;23.378;2023-03-01T07:56:14;3.77;;;1.90;;
6832;SDS011;3454;42.654;23.378;2023-03-01T07:58:42;4.67;;;2.00;;
6832;SDS011;3454;42.654;23.378;2023-03-01T08:01:09;1.97;;;1.43;;
6832;SDS011;3454;42.654;23.378;2023-03-01T08:03:37;2.53;;;1.63;;
6832;SDS011;3454;42.654;23.378;2023-03-01T08:06:03;1.30;;;1.10;;
6832;SDS011;3454;42.654;23.378;2023-03-01T08:08:31;3.77;;;2.13;;
6832;SDS011;3454;42.654;23.378;2023-03-01T08:10:58;2.57;;;1.37;;
6832;SDS011;3454;42.654;23.378;2023-03-01T08:13:24;4.40;;;1.43;;
6832;SDS011;3454;42.654;23.378;2023-03-01T08:15:50;1.97;;;1.47;;
6832;SDS011;3454;42.654;23.378;2023-03-01T08:18:17;3.70;;;1.80;;
6832;SDS011;3454;42.654;23.378;2023-03-01T08:20:43;2.43;;;1.80;;
6832;SDS011;3454;42.654;23.378;2023-03-01T08:23:09;2.83;;;2.00;;
6832;SDS011;3454;42.654;23.378;2023-03-01T08:25:34;2.13;;;1.80;;
6832;SDS011;3454;42.654;23.378;2023-03-01T08:28:00;3.93;;;1.87;;
6832;SDS011;3454;42.654;23.378;2023-03-01T08:30:25;2.50;;;1.80;;
6832;SDS011;3454;42.654;23.378;2023-03-01T08:32:51;2.17;;;1.67;;
6832;SDS011;3454;42.654;23.378;2023-03-01T08:35:16;2.97;;;1.97;;
6832;SDS011;3454;42.654;23.378;2023-03-01T08:37:42;2.90;;;2.00;;
6832;SDS011;3454;42.654;23.378;2023-03-01T08:40:08;5.83;;;2.10;;
6832;SDS011;3454;42.654;23.378;2023-03-01T08:42:35;4.33;;;2.47;;
6832;SDS011;3454;42.654;23.378;2023-03-01T08:45:02;3.70;;;2.37;;
6832;SDS011;3454;42.654;23.378;2023-03-01T08:47:30;1.67;;;1.57;;
6832;SDS011;3454;42.654;23.378;2023-03-01T08:49:56;5.40;;;2.17;;
6832;SDS011;3454;42.654;23.378;2023-03-01T08:52:21;3.17;;;2.77;;
6832;SDS011;3454;42.654;23.378;2023-03-01T08:54:48;3.00;;;2.40;;
6832;SDS011;3454;42.654;23.378;2023-03-01T08:57:14;3.87;;;2.50;;
6832;SDS011;3454;42.654;23.378;2023-03-01T08:59:53;3.20;;;2.10;;
6832;SDS011;3454;42.654;23.378;2023-03-01T09:02:21;2.67;;;1.67;;
6832;SDS011;3454;42.654;23.378;2023-03-01T09:04:47;4.50;;;2.93;;
6832;SDS011;3454;42.654;23.378;2023-03-01T09:07:12;7.50;;;3.83;;
6832;SDS011;3454;42.654;23.378;2023-03-01T09:09:37;5.60;;;3.10;;
6832;SDS011;3454;42.654;23.378;2023-03-01T09:12:03;5.17;;;2.90;;
6832;SDS011;3454;42.654;23.378;2023-03-01T09:14:29;2.60;;;1.60;;
6832;SDS011;3454;42.654;23.378;2023-03-01T09:16:54;3.50;;;2.03;;
6832;SDS011;3454;42.654;23.378;2023-03-01T09:19:20;3.70;;;1.83;;
6832;SDS011;3454;42.654;23.378;2023-03-01T09:21:45;1.97;;;1.23;;
6832;SDS011;3454;42.654;23.378;2023-03-01T09:24:17;1.47;;;1.37;;
6832;SDS011;3454;42.654;23.378;2023-03-01T09:26:44;1.37;;;1.27;;
6832;SDS011;3454;42.654;23.378;2023-03-01T09:29:11;1.20;;;0.90;;
6832;SDS011;3454;42.654;23.378;2023-03-01T09:31:37;2.27;;;1.13;;
6832;SDS011;3454;42.654;23.378;2023-03-01T09:34:03;2.70;;;1.37;;
6832;SDS011;3454;42.654;23.378;2023-03-01T09:36:28;1.00;;;0.90;;
6832;SDS011;3454;42.654;23.378;2023-03-01T09:38:54;4.77;;;1.50;;
6832;SDS011;3454;42.654;23.378;2023-03-01T09:41:30;3.27;;;1.40;;
6832;SDS011;3454;42.654;23.378;2023-03-01T09:47:22;1.20;;;1.10;;
6832;SDS011;3454;42.654;23.378;2023-03-01T09:50:11;1.70;;;1.10;;
6832;SDS011;3454;42.654;23.378;2023-03-01T09:55:14;2.40;;;1.57;;
6832;SDS011;3454;42.654;23.378;2023-03-01T09:57:47;2.33;;;1.33;;
6832;SDS011;3454;42.654;23.378;2023-03-01T10:03:12;2.57;;;1.50;;
6832;SDS011;3454;42.654;23.378;2023-03-01T10:10:55;2.27;;;1.47;;
6832;SDS011;3454;42.654;23.378;2023-03-01T10:16:26;1.33;;;1.00;;
6832;SDS011;3454;42.654;23.378;2023-03-01T10:18:59;1.90;;;1.00;;
6832;SDS011;3454;42.654;23.378;2023-03-01T10:21:28;3.07;;;1.17;;
6832;SDS011;3454;42.654;23.378;2023-03-01T10:23:56;1.57;;;1.20;;
6832;SDS011;3454;42.654;23.378;2023-03-01T10:29:34;3.13;;;1.00;;
6832;SDS011;3454;42.654;23.378;2023-03-01T10:32:04;1.40;;;1.23;;
6832;SDS011;3454;42.654;23.378;2023-03-01T10:34:34;1.33;;;1.23;;
6832;SDS011;3454;42.654;23.378;2023-03-01T10:37:14;2.00;;;1.17;;
6832;SDS011;3454;42.654;23.378;2023-03-01T10:40:05;1.93;;;1.50;;
6832;SDS011;3454;42.654;23.378;2023-03-01T10:42:45;3.40;;;1.23;;
6832;SDS011;3454;42.654;23.378;2023-03-01T10:50:49;2.23;;;1.30;;
6832;SDS011;3454;42.654;23.378;2023-03-01T10:56:11;2.80;;;1.43;;
6832;SDS011;3454;42.654;23.378;2023-03-01T10:58:39;3.27;;;1.53;;
6832;SDS011;3454;42.654;23.378;2023-03-01T11:03:40;2.23;;;1.83;;
6832;SDS011;3454;42.654;23.378;2023-03-01T11:06:20;2.33;;;1.70;;
6832;SDS011;3454;42.654;23.378;2023-03-01T11:08:48;2.17;;;1.70;;
6832;SDS011;3454;42.654;23.378;2023-03-01T11:11:31;2.17;;;1.60;;
6832;SDS011;3454;42.654;23.378;2023-03-01T11:14:18;3.90;;;1.93;;
6832;SDS011;3454;42.654;23.378;2023-03-01T11:16:57;2.07;;;1.47;;
6832;SDS011;3454;42.654;23.378;2023-03-01T11:19:25;2.33;;;1.80;;
6832;SDS011;3454;42.654;23.378;2023-03-01T11:22:05;2.27;;;2.07;;
6832;SDS011;3454;42.654;23.378;2023-03-01T11:24:41;4.67;;;2.00;;
6832;SDS011;3454;42.654;23.378;2023-03-01T11:27:20;2.03;;;1.67;;
6832;SDS011;3454;42.654;23.378;2023-03-01T11:32:40;5.20;;;2.10;;
6832;SDS011;3454;42.654;23.378;2023-03-01T11:35:14;1.70;;;1.60;;
6832;SDS011;3454;42.654;23.378;2023-03-01T11:37:54;3.13;;;2.00;;
6832;SDS011;3454;42.654;23.378;2023-03-01T11:40:33;2.53;;;1.93;;
6832;SDS011;3454;42.654;23.378;2023-03-01T11:54:27;4.17;;;2.53;;
6832;SDS011;3454;42.654;23.378;2023-03-01T11:57:18;3.77;;;3.17;;
6832;SDS011;3454;42.654;23.378;2023-03-01T12:02:59;3.57;;;3.10;;
6832;SDS011;3454;42.654;23.378;2023-03-01T12:05:41;5.60;;;3.43;;
6832;SDS011;3454;42.654;23.378;2023-03-01T12:08:20;3.67;;;2.60;;
6832;SDS011;3454;42.654;23.378;2023-03-01T12:13:59;5.10;;;2.87;;
6832;SDS011;3454;42.654;23.378;2023-03-01T12:27:49;3.70;;;2.80;;
6832;SDS011;3454;42.654;23.378;2023-03-01T12:30:29;3.83;;;2.87;;
6832;SDS011;3454;42.654;23.378;2023-03-01T12:36:13;4.90;;;2.83;;
6832;SDS011;3454;42.654;23.378;2023-03-01T12:38:44;3.57;;;2.73;;
6832;SDS011;3454;42.654;23.378;2023-03-01T12:41:26;3.93;;;3.10;;
6832;SDS011;3454;42.654;23.378;2023-03-01T12:44:01;3.73;;;3.27;;
6832;SDS011;3454;42.654;23.378;2023-03-01T12:49:38;3.53;;;3.13;;
6832;SDS011;3454;42.654;23.378;2023-03-01T12:51:56;4.83;;;2.80;;
6832;SDS011;3454;42.654;23.378;2023-03-01T12:54:28;3.47;;;2.80;;
6832;SDS011;3454;42.654;23.378;2023-03-01T12:56:56;3.33;;;2.60;;
6832;SDS011;3454;42.654;23.378;2023-03-01T13:07:41;3.93;;;3.07;;
6832;SDS011;3454;42.654;23.378;2023-03-01T13:10:34;3.30;;;2.43;;
6832;SDS011;3454;42.654;23.378;2023-03-01T13:13:02;4.40;;;3.37;;
6832;SDS011;3454;42.654;23.378;2023-03-01T13:15:37;3.20;;;2.60;;
6832;SDS011;3454;42.654;23.378;2023-03-01T13:26:29;2.93;;;2.37;;
6832;SDS011;3454;42.654;23.378;2023-03-01T13:28:40;4.20;;;2.30;;
6832;SDS011;3454;42.654;23.378;2023-03-01T13:31:10;3.60;;;2.20;;
6832;SDS011;3454;42.654;23.378;2023-03-01T13:33:59;3.30;;;2.50;;
6832;SDS011;3454;42.654;23.378;2023-03-01T13:44:19;6.43;;;2.83;;
6832;SDS011;3454;42.654;23.378;2023-03-01T13:50:00;2.67;;;2.20;;
6832;SDS011;3454;42.654;23.378;2023-03-01T13:55:21;4.90;;;2.63;;
6832;SDS011;3454;42.654;23.378;2023-03-01T13:57:53;3.73;;;3.03;;
6832;SDS011;3454;42.654;23.378;2023-03-01T14:05:38;2.83;;;2.37;;
6832;SDS011;3454;42.654;23.378;2023-03-01T14:08:17;5.90;;;2.60;;
6832;SDS011;3454;42.654;23.378;2023-03-01T14:10:59;3.67;;;1.93;;
6832;SDS011;3454;42.654;23.378;2023-03-01T14:21:49;1.90;;;1.77;;
6832;SDS011;3454;42.654;23.378;2023-03-01T14:24:43;3.63;;;1.90;;
6832;SDS011;3454;42.654;23.378;2023-03-01T14:27:20;3.20;;;2.37;;
6832;SDS011;3454;42.654;23.378;2023-03-01T14:29:57;3.90;;;2.43;;
6832;SDS011;3454;42.654;23.378;2023-03-01T14:32:29;3.13;;;2.03;;
6832;SDS011;3454;42.654;23.378;2023-03-01T14:34:56;4.40;;;2.23;;
6832;SDS011;3454;42.654;23.378;2023-03-01T14:37:33;2.87;;;1.80;;
6832;SDS011;3454;42.654;23.378;2023-03-01T14:40:01;5.63;;;2.00;;
6832;SDS011;3454;42.654;23.378;2023-03-01T14:42:30;6.87;;;2.60;;
6832;SDS011;3454;42.654;23.378;2023-03-01T14:45:00;4.30;;;2.67;;
6832;SDS011;3454;42.654;23.378;2023-03-01T14:50:00;2.33;;;1.83;;
6832;SDS011;3454;42.654;23.378;2023-03-01T14:52:34;2.83;;;1.77;;
6832;SDS011;3454;42.654;23.378;2023-03-01T14:55:05;5.03;;;1.70;;
6832;SDS011;3454;42.654;23.378;2023-03-01T14:57:43;4.27;;;1.73;;
6832;SDS011;3454;42.654;23.378;2023-03-01T15:00:16;3.87;;;2.33;;
6832;SDS011;3454;42.654;23.378;2023-03-01T15:02:45;6.00;;;2.20;;
6832;SDS011;3454;42.654;23.378;2023-03-01T15:05:14;3.63;;;2.50;;
6832;SDS011;3454;42.654;23.378;2023-03-01T15:07:41;3.30;;;2.13;;
6832;SDS011;3454;42.654;23.378;2023-03-01T15:10:17;3.50;;;2.70;;
6832;SDS011;3454;42.654;23.378;2023-03-01T15:12:46;4.00;;;2.23;;
6832;SDS011;3454;42.654;23.378;2023-03-01T15:15:31;3.43;;;2.40;;
6832;SDS011;3454;42.654;23.378;2023-03-01T15:18:01;3.93;;;2.43;;
6832;SDS011;3454;42.654;23.378;2023-03-01T15:20:30;3.80;;;2.47;;
6832;SDS011;3454;42.654;23.378;2023-03-01T15:23:00;3.57;;;2.53;;
6832;SDS011;3454;42.654;23.378;2023-03-01T15:25:28;4.53;;;2.93;;
6832;SDS011;3454;42.654;23.378;2023-03-01T15:27:55;5.17;;;2.73;;
6832;SDS011;3454;42.654;23.378;2023-03-01T15:30:27;6.80;;;3.10;;
6832;SDS011;3454;42.654;23.378;2023-03-01T15:35:53;4.57;;;2.67;;
6832;SDS011;3454;42.654;23.378;2023-03-01T15:41:25;5.47;;;3.63;;
6832;SDS011;3454;42.654;23.378;2023-03-01T15:43:53;4.83;;;3.40;;
6832;SDS011;3454;42.654;23.378;2023-03-01T15:46:39;7.90;;;3.73;;
6832;SDS011;3454;42.654;23.378;2023-03-01T15:52:01;5.67;;;2.90;;
6832;SDS011;3454;42.654;23.378;2023-03-01T15:54:27;8.37;;;4.50;;
6832;SDS011;3454;42.654;23.378;2023-03-01T15:56:53;10.53;;;3.60;;
6832;SDS011;3454;42.654;23.378;2023-03-01T15:59:19;4.17;;;3.17;;
6832;SDS011;3454;42.654;23.378;2023-03-01T16:01:47;6.30;;;3.50;;
6832;SDS011;3454;42.654;23.378;2023-03-01T16:04:14;5.87;;;3.57;;
6832;SDS011;3454;42.654;23.378;2023-03-01T16:06:49;3.73;;;3.00;;
6832;SDS011;3454;42.654;23.378;2023-03-01T16:09:23;6.33;;;2.70;;
6832;SDS011;3454;42.654;23.378;2023-03-01T16:11:50;5.33;;;3.23;;
6832;SDS011;3454;42.654;23.378;2023-03-01T16:14:17;4.63;;;2.97;;
6832;SDS011;3454;42.654;23.378;2023-03-01T16:16:43;6.90;;;3.40;;
6832;SDS011;3454;42.654;23.378;2023-03-01T16:19:09;6.23;;;3.70;;
6832;SDS011;3454;42.654;23.378;2023-03-01T16:21:35;3.93;;;3.00;;
6832;SDS011;3454;42.654;23.378;2023-03-01T16:24:01;4.73;;;2.73;;
6832;SDS011;3454;42.654;23.378;2023-03-01T16:26:27;5.53;;;3.83;;
6832;SDS011;3454;42.654;23.378;2023-03-01T16:28:55;6.73;;;4.57;;
6832;SDS011;3454;42.654;23.378;2023-03-01T16:31:22;4.13;;;2.60;;
6832;SDS011;3454;42.654;23.378;2023-03-01T16:33:52;8.83;;;3.00;;
6832;SDS011;3454;42.654;23.378;2023-03-01T16:36:19;5.33;;;2.40;;
6832;SDS011;3454;42.654;23.378;2023-03-01T16:38:48;4.10;;;3.07;;
6832;SDS011;3454;42.654;23.378;2023-03-01T16:41:15;5.67;;;3.20;;
6832;SDS011;3454;42.654;23.378;2023-03-01T16:43:42;6.53;;;3.30;;
6832;SDS011;3454;42.654;23.378;2023-03-01T16:46:12;5.93;;;3.03;;
6832;SDS011;3454;42.654;23.378;2023-03-01T16:48:39;4.37;;;2.57;;
6832;SDS011;3454;42.654;23.378;2023-03-01T16:51:05;5.17;;;3.90;;
6832;SDS011;3454;42.654;23.378;2023-03-01T16:53:32;5.30;;;3.30;;
6832;SDS011;3454;42.654;23.378;2023-03-01T16:56:01;8.33;;;3.70;;
6832;SDS011;3454;42.654;23.378;2023-03-01T16:58:28;8.97;;;3.47;;
6832;SDS011;3454;42.654;23.378;2023-03-01T17:00:54;9.00;;;3.20;;
6832;SDS011;3454;42.654;23.378;2023-03-01T17:03:21;5.37;;;3.50;;
6832;SDS011;3454;42.654;23.378;2023-03-01T17:05:49;5.50;;;3.37;;
6832;SDS011;3454;42.654;23.378;2023-03-01T17:08:15;7.83;;;3.13;;
6832;SDS011;3454;42.654;23.378;2023-03-01T17:10:41;4.03;;;2.87;;
6832;SDS011;3454;42.654;23.378;2023-03-01T17:13:07;4.83;;;2.83;;
6832;SDS011;3454;42.654;23.378;2023-03-01T17:15:34;3.40;;;2.30;;
6832;SDS011;3454;42.654;23.378;2023-03-01T17:18:02;10.63;;;6.13;;
6832;SDS011;3454;42.654;23.378;2023-03-01T17:20:27;14.60;;;8.47;;
6832;SDS011;3454;42.654;23.378;2023-03-01T17:22:53;6.00;;;3.40;;
6832;SDS011;3454;42.654;23.378;2023-03-01T17:25:18;6.67;;;3.20;;
6832;SDS011;3454;42.654;23.378;2023-03-01T17:27:44;5.17;;;2.80;;
6832;SDS011;3454;42.654;23.378;2023-03-01T17:30:10;7.27;;;3.63;;
6832;SDS011;3454;42.654;23.378;2023-03-01T17:32:38;5.67;;;3.40;;
6832;SDS011;3454;42.654;23.378;2023-03-01T17:35:04;6.87;;;3.53;;
6832;SDS011;3454;42.654;23.378;2023-03-01T17:37:32;6.53;;;3.87;;
6832;SDS011;3454;42.654;23.378;2023-03-01T17:39:57;7.63;;;4.13;;